createdAt,value
2018-02-01T00:00:49.203Z,45.60
2018-02-01T00:02:51.777Z,45.60
2018-02-01T00:04:54.349Z,45.50
2018-02-01T00:06:56.797Z,45.60
2018-02-01T00:08:59.388Z,45.60
2018-02-01T00:11:01.952Z,45.60
2018-02-01T00:13:04.382Z,45.50
2018-02-01T00:15:07.005Z,45.50
2018-02-01T00:17:09.676Z,45.40
2018-02-01T00:19:12.240Z,45.40
2018-02-01T00:21:14.693Z,45.50
2018-02-01T00:23:17.197Z,45.50
2018-02-01T00:25:19.750Z,45.40
2018-02-01T00:27:22.318Z,45.40
2018-02-01T00:29:24.777Z,45.40
2018-02-01T00:31:27.202Z,45.40
2018-02-01T00:33:29.845Z,45.50
2018-02-01T00:35:32.345Z,45.40
2018-02-01T00:37:34.805Z,45.40
2018-02-01T00:39:37.335Z,45.30
2018-02-01T00:41:39.753Z,45.30
2018-02-01T00:43:42.252Z,45.30
2018-02-01T00:45:45.440Z,45.30
2018-02-01T00:47:47.865Z,45.30
2018-02-01T00:49:50.425Z,45.30
2018-02-01T00:51:52.910Z,45.30
2018-02-01T00:53:55.369Z,45.30
2018-02-01T00:55:58.033Z,45.30
2018-02-01T00:58:00.510Z,45.30
2018-02-01T01:00:02.948Z,45.30
2018-02-01T01:02:06.275Z,45.30
2018-02-01T01:04:08.813Z,45.30
2018-02-01T01:06:11.269Z,45.30
2018-02-01T01:08:13.752Z,45.30
2018-02-01T01:10:16.338Z,45.30
2018-02-01T01:12:18.821Z,45.30
2018-02-01T01:14:21.246Z,45.30
2018-02-01T01:16:23.664Z,45.30
2018-02-01T01:18:26.126Z,45.30
2018-02-01T01:20:28.553Z,45.20
2018-02-01T01:22:31.165Z,45.20
2018-02-01T01:24:33.660Z,45.20
2018-02-01T01:26:36.300Z,45.20
2018-02-01T01:28:38.868Z,45.20
2018-02-01T01:30:41.452Z,45.20
2018-02-01T01:32:44.128Z,45.20
2018-02-01T01:34:46.544Z,45.20
2018-02-01T01:36:48.981Z,45.20
2018-02-01T01:38:51.422Z,45.20
2018-02-01T01:40:53.860Z,45.20
2018-02-01T01:42:56.474Z,45.20
2018-02-01T01:44:59.034Z,45.10
2018-02-01T01:47:01.460Z,45.10
2018-02-01T01:49:03.905Z,45.10
2018-02-01T01:51:06.452Z,45.10
2018-02-01T01:53:08.909Z,45.10
2018-02-01T01:55:11.333Z,45.10
2018-02-01T01:57:13.841Z,45.10
2018-02-01T01:59:16.284Z,45.10
2018-02-01T02:01:20.211Z,45.10
2018-02-01T02:03:22.629Z,45.10
2018-02-01T02:05:25.053Z,45.10
2018-02-01T02:07:28.364Z,45.10
2018-02-01T02:09:30.810Z,45.10
2018-02-01T02:11:34.125Z,45.00
2018-02-01T02:13:36.617Z,44.90
2018-02-01T02:15:39.180Z,45.00
2018-02-01T02:17:41.610Z,45.60
2018-02-01T02:19:44.209Z,44.90
2018-02-01T02:21:46.681Z,45.00
2018-02-01T02:23:49.155Z,44.90
2018-02-01T02:25:51.828Z,44.90
2018-02-01T02:27:54.299Z,45.00
2018-02-01T02:29:56.969Z,44.90
2018-02-01T02:31:59.402Z,44.90
2018-02-01T02:34:02.593Z,45.00
2018-02-01T02:36:05.017Z,44.90
2018-02-01T02:38:07.540Z,44.90
2018-02-01T02:40:10.026Z,45.00
2018-02-01T02:42:12.497Z,44.90
2018-02-01T02:44:15.072Z,44.90
2018-02-01T02:46:17.505Z,44.90
2018-02-01T02:48:20.058Z,44.90
2018-02-01T02:50:22.684Z,44.90
2018-02-01T02:52:25.112Z,44.90
2018-02-01T02:54:27.541Z,44.90
2018-02-01T02:56:30.103Z,44.90
2018-02-01T02:58:32.770Z,44.90
2018-02-01T03:00:35.242Z,44.90
2018-02-01T03:02:37.645Z,44.80
2018-02-01T03:04:40.084Z,44.80
2018-02-01T03:06:42.649Z,44.80
2018-02-01T03:08:45.120Z,44.80
2018-02-01T03:10:47.581Z,44.80
2018-02-01T03:12:50.746Z,44.90
2018-02-01T03:14:53.348Z,44.80
2018-02-01T03:16:55.856Z,44.80
2018-02-01T03:18:58.332Z,44.80
2018-02-01T03:21:00.949Z,44.80
2018-02-01T03:23:03.365Z,44.80
2018-02-01T03:25:05.905Z,44.80
2018-02-01T03:27:08.325Z,44.80
2018-02-01T03:29:11.045Z,44.80
2018-02-01T03:31:13.521Z,44.80
2018-02-01T03:33:16.189Z,44.80
2018-02-01T03:35:18.661Z,44.80
2018-02-01T03:37:21.082Z,44.70
2018-02-01T03:39:23.505Z,44.70
2018-02-01T03:41:25.957Z,44.70
2018-02-01T03:43:28.413Z,44.70
2018-02-01T03:45:31.013Z,44.70
2018-02-01T03:47:33.688Z,44.70
2018-02-01T03:49:36.121Z,44.70
2018-02-01T03:51:39.325Z,44.70
2018-02-01T03:53:41.769Z,44.70
2018-02-01T03:55:44.299Z,44.70
2018-02-01T03:57:46.854Z,44.60
2018-02-01T03:59:49.274Z,44.70
2018-02-01T04:01:51.798Z,44.50
2018-02-01T04:03:54.338Z,44.50
2018-02-01T04:05:56.829Z,44.50
2018-02-01T04:07:59.312Z,44.50
2018-02-01T04:10:01.785Z,44.60
2018-02-01T04:12:04.221Z,44.60
2018-02-01T04:14:06.709Z,44.60
2018-02-01T04:16:09.329Z,44.60
2018-02-01T04:18:11.718Z,44.50
2018-02-01T04:20:14.916Z,45.00
2018-02-01T04:22:17.329Z,44.50
2018-02-01T04:24:19.980Z,44.60
2018-02-01T04:26:22.465Z,44.60
2018-02-01T04:28:24.941Z,44.50
2018-02-01T04:30:27.597Z,44.50
2018-02-01T04:32:30.021Z,44.50
2018-02-01T04:34:32.440Z,44.50
2018-02-01T04:36:34.880Z,44.50
2018-02-01T04:38:37.572Z,44.40
2018-02-01T04:40:40.847Z,44.40
2018-02-01T04:42:43.444Z,44.40
2018-02-01T04:44:45.993Z,44.40
2018-02-01T04:46:48.466Z,44.40
2018-02-01T04:48:51.052Z,44.40
2018-02-01T04:50:54.261Z,44.40
2018-02-01T04:52:56.813Z,44.40
2018-02-01T04:54:59.288Z,44.40
2018-02-01T04:57:01.724Z,44.40
2018-02-01T04:59:04.928Z,44.40
2018-02-01T05:01:07.401Z,44.30
2018-02-01T05:03:09.981Z,44.40
2018-02-01T05:05:12.408Z,44.20
2018-02-01T05:07:14.836Z,44.30
2018-02-01T05:09:17.388Z,43.80
2018-02-01T05:11:19.956Z,44.30
2018-02-01T05:13:22.536Z,44.20
2018-02-01T05:15:25.100Z,44.30
2018-02-01T05:17:27.515Z,44.20
2018-02-01T05:19:30.143Z,44.20
2018-02-01T05:21:32.629Z,44.20
2018-02-01T05:23:35.081Z,44.20
2018-02-01T05:25:37.576Z,44.20
2018-02-01T05:27:40.039Z,44.20
2018-02-01T05:29:42.469Z,44.20
2018-02-01T05:31:45.674Z,44.10
2018-02-01T05:33:48.253Z,44.20
2018-02-01T05:35:50.925Z,44.10
2018-02-01T05:37:53.341Z,44.10
2018-02-01T05:39:55.761Z,44.10
2018-02-01T05:41:58.233Z,44.10
2018-02-01T05:44:00.811Z,44.10
2018-02-01T05:46:03.313Z,44.00
2018-02-01T05:48:05.848Z,44.00
2018-02-01T05:50:08.313Z,44.00
2018-02-01T05:52:10.769Z,44.00
2018-02-01T05:54:13.249Z,44.00
2018-02-01T05:56:15.665Z,44.00
2018-02-01T05:58:18.300Z,44.60
2018-02-01T06:00:23.545Z,44.00
2018-02-01T06:02:26.017Z,44.00
2018-02-01T06:04:28.638Z,44.00
2018-02-01T06:06:31.064Z,43.90
2018-02-01T06:08:33.720Z,43.90
2018-02-01T06:10:36.229Z,43.90
2018-02-01T06:12:38.756Z,43.90
2018-02-01T06:14:41.337Z,43.90
2018-02-01T06:16:43.888Z,43.90
2018-02-01T06:18:46.393Z,43.90
2018-02-01T06:20:48.945Z,43.90
2018-02-01T06:22:51.364Z,43.90
2018-02-01T06:24:53.826Z,44.50
2018-02-01T06:26:56.356Z,43.90
2018-02-01T06:28:58.841Z,43.80
2018-02-01T06:31:01.322Z,43.80
2018-02-01T06:33:03.853Z,43.80
2018-02-01T06:35:06.442Z,43.80
2018-02-01T06:37:08.865Z,43.80
2018-02-01T06:39:11.589Z,43.80
2018-02-01T06:41:14.057Z,43.80
2018-02-01T06:43:16.590Z,43.70
2018-02-01T06:45:18.973Z,43.70
2018-02-01T06:47:22.284Z,43.80
2018-02-01T06:49:24.762Z,43.70
2018-02-01T06:51:27.257Z,43.70
2018-02-01T06:53:29.896Z,44.30
2018-02-01T06:55:32.572Z,43.70
2018-02-01T06:57:35.241Z,43.70
2018-02-01T06:59:37.924Z,43.70
2018-02-01T07:01:43.965Z,43.60
2018-02-01T07:03:46.552Z,43.60
2018-02-01T07:05:49.218Z,43.60
2018-02-01T07:07:51.637Z,43.60
2018-02-01T07:09:54.061Z,43.60
2018-02-01T07:11:56.632Z,43.60
2018-02-01T07:13:59.112Z,43.50
2018-02-01T07:16:01.538Z,43.50
2018-02-01T07:18:04.734Z,43.50
2018-02-01T07:20:07.329Z,43.50
2018-02-01T07:22:09.758Z,43.50
2018-02-01T07:24:12.184Z,43.40
2018-02-01T07:26:14.622Z,43.40
2018-02-01T07:28:18.028Z,43.50
2018-02-01T07:30:20.452Z,43.40
2018-02-01T07:32:23.073Z,43.40
2018-02-01T07:34:25.492Z,43.80
2018-02-01T07:36:27.932Z,43.30
2018-02-01T07:38:30.474Z,43.30
2018-02-01T07:40:32.929Z,43.30
2018-02-01T07:42:35.397Z,43.40
2018-02-01T07:44:37.868Z,43.30
2018-02-01T07:46:42.193Z,43.30
2018-02-01T07:48:44.773Z,43.30
2018-02-01T07:50:47.250Z,43.30
2018-02-01T07:52:49.669Z,43.30
2018-02-01T07:54:52.189Z,43.40
2018-02-01T07:56:55.400Z,43.30
2018-02-01T07:58:57.834Z,43.30
2018-02-01T08:01:00.990Z,43.40
2018-02-01T08:03:04.176Z,43.30
2018-02-01T08:05:07.376Z,43.40
2018-02-01T08:07:10.555Z,43.40
2018-02-01T08:09:13.763Z,43.40
2018-02-01T08:11:16.198Z,43.40
2018-02-01T08:13:18.615Z,43.40
2018-02-01T08:15:21.082Z,43.40
2018-02-01T08:17:23.487Z,43.40
2018-02-01T08:19:25.937Z,43.40
2018-02-01T08:21:28.361Z,43.40
2018-02-01T08:23:31.545Z,43.40
2018-02-01T08:25:34.750Z,43.40
2018-02-01T08:27:37.170Z,43.40
2018-02-01T08:29:39.589Z,43.30
2018-02-01T08:31:42.022Z,43.40
2018-02-01T08:33:44.441Z,43.40
2018-02-01T08:35:46.892Z,43.30
2018-02-01T08:37:50.053Z,43.90
2018-02-01T08:39:53.254Z,44.00
2018-02-01T08:41:55.685Z,44.00
2018-02-01T08:43:58.112Z,44.10
2018-02-01T08:46:00.540Z,44.20
2018-02-01T08:48:02.983Z,44.30
2018-02-01T08:50:05.413Z,44.30
2018-02-01T08:52:07.884Z,44.40
2018-02-01T08:54:11.057Z,44.60
2018-02-01T08:56:13.486Z,44.60
2018-02-01T08:58:15.909Z,44.60
2018-02-01T09:00:18.362Z,44.60
2018-02-01T09:02:21.547Z,44.40
2018-02-01T09:04:24.145Z,44.40
2018-02-01T09:06:26.573Z,44.40
2018-02-01T09:08:29.111Z,44.30
2018-02-01T09:10:31.522Z,44.30
2018-02-01T09:12:35.067Z,44.10
2018-02-01T09:23:29.006Z,44.00
2018-02-01T09:25:31.516Z,44.00
2018-02-01T09:27:34.155Z,43.90
2018-02-01T09:29:38.431Z,44.00
2018-02-01T09:31:43.143Z,44.00
2018-02-01T09:33:45.691Z,44.00
2018-02-01T09:35:48.993Z,44.00
2018-02-01T09:38:50.147Z,44.00
2018-02-01T09:43:58.474Z,44.00
2018-02-01T09:46:01.886Z,44.10
2018-02-01T09:48:05.024Z,44.10
2018-02-01T09:50:07.430Z,44.00
2018-02-01T09:52:09.919Z,44.10
2018-02-01T09:54:12.338Z,44.10
2018-02-01T09:56:15.539Z,44.10
2018-02-01T09:58:17.965Z,44.10
2018-02-01T10:00:20.473Z,44.10
2018-02-01T10:02:23.068Z,44.10
2018-02-01T10:04:25.535Z,44.20
2018-02-01T10:06:27.965Z,44.20
2018-02-01T10:08:30.398Z,44.20
2018-02-01T10:10:32.822Z,44.10
2018-02-01T10:12:36.032Z,43.90
2018-02-01T10:14:38.441Z,43.90
2018-02-01T10:16:40.877Z,43.80
2018-02-01T10:18:44.045Z,43.70
2018-02-01T10:21:01.953Z,43.70
2018-02-01T10:23:04.374Z,43.60
2018-02-01T10:25:07.383Z,43.60
2018-02-01T10:27:09.862Z,43.50
2018-02-01T10:29:12.374Z,43.50
2018-02-01T10:31:14.794Z,43.50
2018-02-01T10:33:17.216Z,43.50
2018-02-01T10:35:19.634Z,43.60
2018-02-01T10:37:23.692Z,43.60
2018-02-01T10:39:26.113Z,43.50
2018-02-01T10:41:29.324Z,43.50
2018-02-01T10:43:32.497Z,43.50
2018-02-01T10:45:35.707Z,43.50
2018-02-01T10:47:38.150Z,43.50
2018-02-01T10:49:41.338Z,43.50
2018-02-01T10:51:44.532Z,43.50
2018-02-01T10:53:47.706Z,43.50
2018-02-01T10:55:50.908Z,43.50
2018-02-01T10:57:54.116Z,43.40
2018-02-01T10:59:56.584Z,44.00
2018-02-01T11:01:58.954Z,43.40
2018-02-01T11:04:01.393Z,43.40
2018-02-01T11:06:04.597Z,43.50
2018-02-01T11:08:07.017Z,43.40
2018-02-01T11:10:09.438Z,43.50
2018-02-01T11:12:11.866Z,43.40
2018-02-01T11:14:14.313Z,43.40
2018-02-01T11:16:16.752Z,43.30
2018-02-01T11:18:19.161Z,43.30
2018-02-01T11:20:21.596Z,43.20
2018-02-01T11:22:24.036Z,43.10
2018-02-01T11:24:27.222Z,43.00
2018-02-01T11:26:30.441Z,42.90
2018-02-01T11:28:32.876Z,42.90
2018-02-01T11:30:36.072Z,42.80
2018-02-01T11:32:39.268Z,42.80
2018-02-01T11:34:41.689Z,42.80
2018-02-01T11:36:44.113Z,42.70
2018-02-01T11:38:46.565Z,42.70
2018-02-01T11:40:49.820Z,42.50
2018-02-01T11:42:52.224Z,42.60
2018-02-01T11:44:55.422Z,42.50
2018-02-01T11:46:57.847Z,42.50
2018-02-01T11:49:00.265Z,42.50
2018-02-01T11:51:02.700Z,42.50
2018-02-01T11:53:05.884Z,42.80
2018-02-01T11:55:09.120Z,42.50
2018-02-01T11:57:12.286Z,42.60
2018-02-01T11:59:14.724Z,42.50
2018-02-01T12:01:17.242Z,42.60
2018-02-01T12:03:19.710Z,42.60
2018-02-01T12:05:22.124Z,42.70
2018-02-01T12:07:24.598Z,42.70
2018-02-01T12:09:27.021Z,42.80
2018-02-01T12:11:29.444Z,42.90
2018-02-01T12:13:32.622Z,43.00
2018-02-01T12:15:35.042Z,43.00
2018-02-01T12:17:37.475Z,43.10
2018-02-01T12:19:40.664Z,43.20
2018-02-01T12:21:43.858Z,43.30
2018-02-01T12:23:46.274Z,43.30
2018-02-01T12:25:49.473Z,43.40
2018-02-01T12:27:52.685Z,43.40
2018-02-01T12:29:55.098Z,43.40
2018-02-01T12:31:57.594Z,43.50
2018-02-01T12:33:59.959Z,43.50
2018-02-01T12:36:03.167Z,43.60
2018-02-01T12:38:05.570Z,43.60
2018-02-01T12:40:08.006Z,43.60
2018-02-01T12:42:10.433Z,43.60
2018-02-01T12:44:12.865Z,43.60
2018-02-01T12:46:15.333Z,43.70
2018-02-01T12:48:17.757Z,43.70
2018-02-01T12:50:21.514Z,43.70
2018-02-01T12:52:23.955Z,43.70
2018-02-01T12:54:26.357Z,43.70
2018-02-01T12:56:28.769Z,43.80
2018-02-01T12:58:31.963Z,43.80
2018-02-01T13:00:34.381Z,43.80
2018-02-01T13:02:36.827Z,43.80
2018-02-01T13:04:39.238Z,43.80
2018-02-01T13:06:41.659Z,43.80
2018-02-01T13:08:44.083Z,43.80
2018-02-01T13:10:47.309Z,43.80
2018-02-01T13:12:49.717Z,43.80
2018-02-01T13:14:52.146Z,43.80
2018-02-01T13:23:06.901Z,43.90
2018-02-01T13:25:09.461Z,43.90
2018-02-01T13:27:11.881Z,43.90
2018-02-01T13:29:14.407Z,43.90
2018-02-01T13:31:17.494Z,43.80
2018-02-01T13:33:20.014Z,43.80
2018-02-01T13:35:24.030Z,43.70
2018-02-01T13:37:26.567Z,43.70
2018-02-01T13:39:28.996Z,43.70
2018-02-01T13:41:31.445Z,43.70
2018-02-01T13:43:34.637Z,43.70
2018-02-01T13:45:37.066Z,43.70
2018-02-01T13:47:39.700Z,43.70
2018-02-01T13:49:42.201Z,43.70
2018-02-01T13:51:44.632Z,43.70
2018-02-01T13:53:47.069Z,43.70
2018-02-01T13:55:49.489Z,43.70
2018-02-01T13:57:51.909Z,44.60
2018-02-01T13:59:54.331Z,43.90
2018-02-01T14:01:56.760Z,43.80
2018-02-01T14:03:59.944Z,43.90
2018-02-01T14:06:02.373Z,43.80
2018-02-01T14:11:10.798Z,43.70
2018-02-01T14:13:13.213Z,43.70
2018-02-01T14:15:15.643Z,43.70
2018-02-01T14:17:18.118Z,43.60
2018-02-01T14:19:20.493Z,43.60
2018-02-01T14:21:22.916Z,43.50
2018-02-01T14:23:26.124Z,43.50
2018-02-01T14:25:28.560Z,43.40
2018-02-01T14:27:30.984Z,43.40
2018-02-01T14:29:33.413Z,43.40
2018-02-01T14:31:36.616Z,43.30
2018-02-01T14:33:39.034Z,43.30
2018-02-01T14:35:41.466Z,43.30
2018-02-01T14:37:43.910Z,43.30
2018-02-01T14:39:47.095Z,43.30
2018-02-01T14:41:50.288Z,43.30
2018-02-01T14:43:53.486Z,43.30
2018-02-01T14:45:55.897Z,43.30
2018-02-01T14:47:58.332Z,43.30
2018-02-01T14:50:00.787Z,43.20
2018-02-01T14:52:03.183Z,43.30
2018-02-01T14:54:05.596Z,43.30
2018-02-01T14:56:08.778Z,43.30
2018-02-01T14:58:11.197Z,43.30
2018-02-01T15:00:13.629Z,43.30
2018-02-01T15:02:16.830Z,43.40
2018-02-01T15:04:20.012Z,43.30
2018-02-01T15:06:23.198Z,43.30
2018-02-01T15:08:26.402Z,43.30
2018-02-01T15:10:28.832Z,43.30
2018-02-01T15:12:31.261Z,43.30
2018-02-01T15:14:33.699Z,43.30
2018-02-01T15:16:36.117Z,43.30
2018-02-01T15:18:38.552Z,43.30
2018-02-01T15:20:40.965Z,43.30
2018-02-01T15:22:43.397Z,43.30
2018-02-01T15:24:45.829Z,43.30
2018-02-01T15:26:49.021Z,43.30
2018-02-01T15:28:52.205Z,43.30
2018-02-01T15:30:55.429Z,43.30
2018-02-01T15:32:57.889Z,43.30
2018-02-01T15:35:00.312Z,43.30
2018-02-01T15:37:02.741Z,43.40
2018-02-01T15:39:05.181Z,43.30
2018-02-01T15:41:07.612Z,43.30
2018-02-01T15:43:10.106Z,43.40
2018-02-01T15:45:12.493Z,43.40
2018-02-01T15:47:14.924Z,43.40
2018-02-01T15:49:17.342Z,43.40
2018-02-01T15:51:19.826Z,43.40
2018-02-01T15:53:22.236Z,43.40
2018-02-01T15:55:24.671Z,43.40
2018-02-01T15:57:27.096Z,43.40
2018-02-01T15:59:29.520Z,43.40
2018-02-01T16:01:31.929Z,43.40
2018-02-01T16:03:35.153Z,43.40
2018-02-01T16:05:37.564Z,43.40
2018-02-01T16:07:39.993Z,43.40
2018-02-01T16:09:42.449Z,43.40
2018-02-01T16:11:45.014Z,43.40
2018-02-01T16:13:47.684Z,43.40
2018-02-01T16:15:50.105Z,43.40
2018-02-01T16:17:52.636Z,43.40
2018-02-01T16:19:55.100Z,43.50
2018-02-01T16:21:58.402Z,43.50
2018-02-01T16:24:01.062Z,43.50
2018-02-01T16:26:03.493Z,43.50
2018-02-01T16:28:05.998Z,43.50
2018-02-01T16:30:09.168Z,44.10
2018-02-01T16:32:11.585Z,43.50
2018-02-01T16:34:14.029Z,43.50
2018-02-01T16:36:16.461Z,43.50
2018-02-01T16:38:19.780Z,43.60
2018-02-01T16:40:22.201Z,43.50
2018-02-01T16:42:24.822Z,43.50
2018-02-01T16:44:27.221Z,43.50
2018-02-01T16:46:29.654Z,43.60
2018-02-01T16:48:32.167Z,43.60
2018-02-01T16:50:34.596Z,43.60
2018-02-01T16:52:37.033Z,43.60
2018-02-01T16:54:39.469Z,43.60
2018-02-01T16:56:41.889Z,43.70
2018-02-01T16:58:44.363Z,43.60
2018-02-01T17:00:46.840Z,43.60
2018-02-01T17:02:49.269Z,43.60
2018-02-01T17:04:51.713Z,43.60
2018-02-01T17:06:54.170Z,43.60
2018-02-01T17:08:56.824Z,43.60
2018-02-01T17:10:59.328Z,43.60
2018-02-01T17:13:01.773Z,43.60
2018-02-01T17:15:04.192Z,43.50
2018-02-01T17:17:06.625Z,43.50
2018-02-01T17:19:09.057Z,43.50
2018-02-01T17:21:11.525Z,43.50
2018-02-01T17:23:13.958Z,43.50
2018-02-01T17:25:16.605Z,43.50
2018-02-01T17:27:19.265Z,43.50
2018-02-01T17:29:22.556Z,43.50
2018-02-01T17:31:25.110Z,43.50
2018-02-01T17:33:27.605Z,43.50
2018-02-01T17:35:30.058Z,43.50
2018-02-01T17:37:32.631Z,43.50
2018-02-01T17:39:35.162Z,43.50
2018-02-01T17:41:37.781Z,43.50
2018-02-01T17:43:40.264Z,43.50
2018-02-01T17:45:42.745Z,43.50
2018-02-01T17:47:45.405Z,43.40
2018-02-01T17:49:47.873Z,43.50
2018-02-01T17:51:50.338Z,43.40
2018-02-01T17:53:52.780Z,43.40
2018-02-01T17:55:55.965Z,43.40
2018-02-01T17:57:58.565Z,43.40
2018-02-01T18:00:01.001Z,43.40
2018-02-01T18:02:04.329Z,43.40
2018-02-01T18:04:06.796Z,43.40
2018-02-01T18:06:09.217Z,43.40
2018-02-01T18:08:11.757Z,43.40
2018-02-01T18:10:14.313Z,43.10
2018-02-01T18:12:16.732Z,43.40
2018-02-01T18:14:19.340Z,43.40
2018-02-01T18:16:21.816Z,43.40
2018-02-01T18:18:24.248Z,43.40
2018-02-01T18:20:27.565Z,43.40
2018-02-01T18:22:30.062Z,43.40
2018-02-01T18:24:32.532Z,43.40
2018-02-01T18:26:34.974Z,43.30
2018-02-01T18:28:37.437Z,43.20
2018-02-01T18:30:39.817Z,43.30
2018-02-01T18:32:42.280Z,43.20
2018-02-01T18:34:44.737Z,43.20
2018-02-01T18:36:47.329Z,43.30
2018-02-01T18:38:49.801Z,43.20
2018-02-01T18:40:52.273Z,43.20
2018-02-01T18:42:54.766Z,43.30
2018-02-01T18:44:57.292Z,43.20
2018-02-01T18:46:59.724Z,43.20
2018-02-01T18:49:03.652Z,43.30
2018-02-01T18:51:06.254Z,43.20
2018-02-01T18:53:08.689Z,43.20
2018-02-01T18:55:11.885Z,43.20
2018-02-01T18:57:14.480Z,43.20
2018-02-01T18:59:17.160Z,43.20
2018-02-01T19:01:19.588Z,43.20
2018-02-01T19:03:22.100Z,43.20
2018-02-01T19:05:24.600Z,43.20
2018-02-01T19:07:27.017Z,43.20
2018-02-01T19:09:30.192Z,43.20
2018-02-01T19:11:32.697Z,43.20
2018-02-01T19:13:35.130Z,43.20
2018-02-01T19:15:37.563Z,43.20
2018-02-01T19:17:40.076Z,43.20
2018-02-01T19:19:42.572Z,43.20
2018-02-01T19:21:45.141Z,43.20
2018-02-01T19:23:47.821Z,43.20
2018-02-01T19:25:50.236Z,43.10
2018-02-01T19:27:52.842Z,43.20
2018-02-01T19:29:55.300Z,43.10
2018-02-01T19:31:57.725Z,43.10
2018-02-01T19:34:00.195Z,43.10
2018-02-01T19:36:02.845Z,43.10
2018-02-01T19:38:05.269Z,43.10
2018-02-01T19:40:07.694Z,43.10
2018-02-01T19:42:10.120Z,43.00
2018-02-01T19:44:12.601Z,43.10
2018-02-01T19:46:15.082Z,43.00
2018-02-01T19:48:17.564Z,43.10
2018-02-01T19:50:20.021Z,43.00
2018-02-01T19:52:22.601Z,43.00
2018-02-01T19:54:25.278Z,43.00
2018-02-01T19:56:27.773Z,43.00
2018-02-01T19:58:30.479Z,43.00
2018-02-01T20:00:32.836Z,43.00
2018-02-01T20:02:35.273Z,42.90
2018-02-01T20:04:37.685Z,42.90
2018-02-01T20:06:40.112Z,42.90
2018-02-01T20:08:42.543Z,42.90
2018-02-01T20:10:45.857Z,42.90
2018-02-01T20:12:48.528Z,42.90
2018-02-01T20:14:51.205Z,42.90
2018-02-01T20:16:53.885Z,42.90
2018-02-01T20:18:56.361Z,42.90
2018-02-01T20:20:58.808Z,42.90
2018-02-01T20:23:01.293Z,42.90
2018-02-01T20:25:03.756Z,42.90
2018-02-01T20:27:06.180Z,42.80
2018-02-01T20:29:08.609Z,42.70
2018-02-01T20:31:11.165Z,42.60
2018-02-01T20:33:13.842Z,42.50
2018-02-01T20:35:16.281Z,42.40
2018-02-01T20:37:19.468Z,42.10
2018-02-01T20:39:22.065Z,42.10
2018-02-01T20:41:24.502Z,42.00
2018-02-01T20:43:27.708Z,41.90
2018-02-01T20:45:30.288Z,41.90
2018-02-01T20:47:32.713Z,41.80
2018-02-01T20:49:35.151Z,41.80
2018-02-01T20:51:37.570Z,41.70
2018-02-01T20:53:40.173Z,41.60
2018-02-01T20:55:42.845Z,41.60
2018-02-01T20:57:45.315Z,41.50
2018-02-01T20:59:47.792Z,41.50
2018-02-01T21:01:50.465Z,41.50
2018-02-01T21:03:53.037Z,41.40
2018-02-01T21:05:55.609Z,41.40
2018-02-01T21:07:58.081Z,41.30
2018-02-01T21:10:00.535Z,42.00
2018-02-01T21:12:03.022Z,41.30
2018-02-01T21:14:05.563Z,41.30
2018-02-01T21:16:07.969Z,41.20
2018-02-01T21:18:10.624Z,41.20
2018-02-01T21:20:13.134Z,41.10
2018-02-01T21:22:15.669Z,41.10
2018-02-01T21:24:18.240Z,41.10
2018-02-01T21:26:20.731Z,41.10
2018-02-01T21:28:23.393Z,41.10
2018-02-01T21:30:25.850Z,41.10
2018-02-01T21:32:28.273Z,41.20
2018-02-01T21:34:30.684Z,41.10
2018-02-01T21:36:33.262Z,41.10
2018-02-01T21:38:35.687Z,41.10
2018-02-01T21:40:38.307Z,41.10
2018-02-01T21:42:40.760Z,41.10
2018-02-01T21:44:43.208Z,41.10
2018-02-01T21:46:45.689Z,41.10
2018-02-01T21:48:48.293Z,41.10
2018-02-01T21:50:50.720Z,41.10
2018-02-01T21:52:53.924Z,41.20
2018-02-01T21:54:56.408Z,41.10
2018-02-01T21:56:58.980Z,41.10
2018-02-01T21:59:01.537Z,41.20
2018-02-01T22:01:04.129Z,41.20
2018-02-01T22:03:06.657Z,41.20
2018-02-01T22:05:09.149Z,41.20
2018-02-01T22:07:11.625Z,41.20
2018-02-01T22:09:14.206Z,41.20
2018-02-01T22:11:16.687Z,41.30
2018-02-01T22:13:19.160Z,41.30
2018-02-01T22:15:21.828Z,41.30
2018-02-01T22:17:24.332Z,41.30
2018-02-01T22:19:26.763Z,41.30
2018-02-01T22:21:29.241Z,41.30
2018-02-01T22:23:31.909Z,41.30
2018-02-01T22:25:34.595Z,41.30
2018-02-01T22:27:37.090Z,41.40
2018-02-01T22:29:39.521Z,41.40
2018-02-01T22:31:42.090Z,41.40
2018-02-01T22:33:44.511Z,41.30
2018-02-01T22:35:46.960Z,41.40
2018-02-01T22:37:49.617Z,41.40
2018-02-01T22:39:52.086Z,41.40
2018-02-01T22:41:54.516Z,41.40
2018-02-01T22:43:57.705Z,41.40
2018-02-01T22:46:00.128Z,41.40
2018-02-01T22:48:02.558Z,41.40
2018-02-01T22:50:04.977Z,41.40
2018-02-01T22:52:07.513Z,41.40
2018-02-01T22:54:09.981Z,41.40
2018-02-01T22:56:12.656Z,41.50
2018-02-01T22:58:15.090Z,41.50
